Terminal Aerodrome Forecast
Issued by NWS Tiyan, Guam

Home | Current Version | Previous Version | Text Only | Print | Product List | Glossary On
Versions: 1 2 3 4 5 6 7 8 9 10 11 12 13 14 15 16 17 18
000
FTPQ31 PGUM 270535
TAFGUM
TAF
PGUM 270535Z 2706/2812 10010KT P6SM VCSH SCT015 SCT040 BKN120
      TEMPO 2706/2708 3SM SHRA BKN015 OVC040=

USA.gov is the U.S. government's official web portal to all federal, state and local government web resources and services.